Hovedside
METAR-TAF:

METAR-TAF

Lufthavner :

Chengdu Shuangliu internasjonale lufthavn

Chengdu, Kina

breddegrad: 30-40N, lengdegrad: 104-01E, høyde over havet: 508 m

Gjeldene værobservasjon

Denne rapporten ble laget for 15 minutter siden, klokken 11:00 UTC
Vind 6 kt fra Nord-nordøst, skiftende mellom Nord og Øst-nordøst
Temperatur 20°C
Luftfuktighet 94%
Trykk 1011 hPa
Sikt 10 km eller mer
Få skyer i en høyde av 1300 ft
Spredte skyer i en høyde av 3300 ft

METAR: ZUUU 201100Z 02003MPS 350V060 9999 FEW013 SCT033 20/19 Q1011 NOSIG

Tid: 19:15 (11:15 UTC)

Varsel

Denne rapporten ble laget for 8 timer og 11 minutter siden, klokken 03:04 UTC
Varsel gyldig fra 20. klokken 06 UTC til 21. klokken 06 UTC
Vind 6 kt fra Nord-nordøst
Sikt: 5000 m
Få skyer i en høyde av 800 ft
Spredte skyer i en høyde av 4000 ft
lett regn, dis

TAF: ZUUU 200304Z 2006/2106 02003MPS 5000 -RA BR FEW008 SCT040 TX23/2007Z TN18/2022Z

Værobservasjoner og værvarsel for over 4000 flyplasser (METAR- og TAF-rapporter).

Tilgjengelige stasjoner er representert av de røde og gule prikkene på kartet.

Hold musepekeren over prikken for å se navnet på stasjonen.

Klikk så for å se værobservasjoner og -varsler.

For å forandre kartet kan du klikke på den grønne knappen med svart kryss for å zoome inn, på den grønne knappen med strek for å zoome ut, eller på de grønne pilene for å se tilstøtende kart.


METAR-TAF: